PWSweather.com
Personal Weather Stations
Station Observations
HASBROUCK
Northern New Jersey, Hasbrouck Heights, NJ 07604

Northern New JerseyHasbrouck Heights, NJ 07604

Lat: 40.8563, Lon: -74.08453

Elevation: 160

Station Type: Davis Vantage Pro2 Plus

http://heightsweather.info

High Low Average
Temperature 72.0°F22.2°C 55.3°F12.9°C 62.8°F17.1°C
Dew Point 51.4°F10.8°C 35.0°F1.7°C 42.4°F5.8°C
Winds 13.8 mph 22.2 kmh Calm Calm 6.0 mph NW9.7 kmh NW
Wind Gusts 21.9 mph35.2 kmh 1.2 mph1.9 kmh 11.0 mph17.7 kmh
Humidity 64% 31% 48%
Pressure 30.07 in1018.3 mb 29.76 in1007.8 mb -
Precipitation 0.00 in0.0 mm - -
Hour Temp Dew Point Humidity Winds Wind Gusts Pressure Precip Precip Rate Daily Precip Total
12:00 AM 67.8°F19.9°C 54.3°F12.4°C 62% 9.2 mph NW14.8 kmh NW 17.3 mph27.8 kmh 29.76 in1007.8 mb - 0.00 in0.0 mm 0.00 in0.0 mm
12:15 AM 67.0°F19.4°C 53.5°F11.9°C 62% 5.8 mph NNW9.3 kmh NNW 9.2 mph14.8 kmh 29.76 in1007.8 mb - 0.00 in0.0 mm 0.00 in0.0 mm
12:30 AM 66.3°F19.1°C 53.3°F11.8°C 63% 3.5 mph WNW5.6 kmh WNW 8.1 mph13.0 kmh 29.76 in1007.8 mb - 0.00 in0.0 mm 0.00 in0.0 mm
12:45 AM 65.5°F18.6°C 52.6°F11.4°C 63% 4.6 mph NW7.4 kmh NW 11.5 mph18.5 kmh 29.76 in1007.8 mb - 0.00 in0.0 mm 0.00 in0.0 mm
01:00 AM 64.8°F18.2°C 51.4°F10.8°C 62% 3.5 mph NNW5.6 kmh NNW 3.5 mph5.6 kmh 29.77 in1008.1 mb - 0.00 in0.0 mm 0.00 in0.0 mm
01:15 AM 64.1°F17.8°C 51.2°F10.7°C 63% 1.2 mph WNW1.9 kmh WNW 13.8 mph22.2 kmh 29.77 in1008.1 mb - 0.00 in0.0 mm 0.00 in0.0 mm
01:30 AM 63.5°F17.5°C 51.1°F10.6°C 64% 5.8 mph NW9.3 kmh NW 10.4 mph16.7 kmh 29.76 in1007.8 mb - 0.00 in0.0 mm 0.00 in0.0 mm
01:45 AM 63.1°F17.3°C 50.7°F10.4°C 64% 4.6 mph WNW7.4 kmh WNW 3.5 mph5.6 kmh 29.76 in1007.8 mb - 0.00 in0.0 mm 0.00 in0.0 mm
02:00 AM 62.8°F17.1°C 50.5°F10.3°C 64% 4.6 mph NW7.4 kmh NW 4.6 mph7.4 kmh 29.77 in1008.1 mb - 0.00 in0.0 mm 0.00 in0.0 mm
02:15 AM 62.8°F17.1°C 49.6°F9.8°C 62% 4.6 mph NW7.4 kmh NW 10.4 mph16.7 kmh 29.78 in1008.5 mb - 0.00 in0.0 mm 0.00 in0.0 mm
02:30 AM 62.5°F16.9°C 48.9°F9.4°C 61% 4.6 mph NW7.4 kmh NW 9.2 mph14.8 kmh 29.78 in1008.5 mb - 0.00 in0.0 mm 0.00 in0.0 mm
02:45 AM 62.1°F16.7°C 48.5°F9.2°C 61% 3.5 mph NNW5.6 kmh NNW 11.5 mph18.5 kmh 29.79 in1008.8 mb - 0.00 in0.0 mm 0.00 in0.0 mm
03:00 AM 61.3°F16.3°C 48.2°F9.0°C 62% 6.9 mph NW11.1 kmh NW 11.5 mph18.5 kmh 29.80 in1009.1 mb - 0.00 in0.0 mm 0.00 in0.0 mm
03:15 AM 60.8°F16.0°C 46.4°F8.0°C 59% 4.6 mph W7.4 kmh W 8.1 mph13.0 kmh 29.80 in1009.1 mb - 0.00 in0.0 mm 0.00 in0.0 mm
03:30 AM 60.4°F15.8°C 45.5°F7.5°C 58% 5.8 mph W9.3 kmh W 6.9 mph11.1 kmh 29.80 in1009.1 mb - 0.00 in0.0 mm 0.00 in0.0 mm
03:45 AM 59.9°F15.5°C 45.5°F7.5°C 59% 3.5 mph NW5.6 kmh NW 10.4 mph16.7 kmh 29.80 in1009.1 mb - 0.00 in0.0 mm 0.00 in0.0 mm
04:00 AM 58.9°F14.9°C 45.9°F7.7°C 62% 2.3 mph WNW3.7 kmh WNW 9.2 mph14.8 kmh 29.80 in1009.1 mb - 0.00 in0.0 mm 0.00 in0.0 mm
04:15 AM 58.8°F14.9°C 45.4°F7.4°C 61% 2.3 mph WNW3.7 kmh WNW 8.1 mph13.0 kmh 29.80 in1009.1 mb - 0.00 in0.0 mm 0.00 in0.0 mm
04:30 AM 58.6°F14.8°C 45.2°F7.3°C 61% 4.6 mph NW7.4 kmh NW 10.4 mph16.7 kmh 29.80 in1009.1 mb - 0.00 in0.0 mm 0.00 in0.0 mm
04:45 AM 58.5°F14.7°C 45.1°F7.3°C 61% 5.8 mph NW9.3 kmh NW 11.5 mph18.5 kmh 29.81 in1009.5 mb - 0.00 in0.0 mm 0.00 in0.0 mm
05:00 AM 58.2°F14.6°C 43.9°F6.6°C 59% 6.9 mph NW11.1 kmh NW 19.6 mph31.5 kmh 29.82 in1009.8 mb - 0.00 in0.0 mm 0.00 in0.0 mm
05:15 AM 58.3°F14.6°C 43.1°F6.2°C 57% 3.5 mph W5.6 kmh W 11.5 mph18.5 kmh 29.83 in1010.2 mb - 0.00 in0.0 mm 0.00 in0.0 mm
05:30 AM 58.4°F14.7°C 43.7°F6.5°C 58% 4.6 mph WNW7.4 kmh WNW 9.2 mph14.8 kmh 29.84 in1010.5 mb - 0.00 in0.0 mm 0.00 in0.0 mm
05:45 AM 58.1°F14.5°C 43.4°F6.3°C 58% 5.8 mph WNW9.3 kmh WNW 11.5 mph18.5 kmh 29.84 in1010.5 mb - 0.00 in0.0 mm 0.00 in0.0 mm
06:00 AM 58.1°F14.5°C 44.3°F6.8°C 60% 6.9 mph NW11.1 kmh NW 11.5 mph18.5 kmh 29.83 in1010.2 mb - 0.00 in0.0 mm 0.00 in0.0 mm
06:15 AM 57.9°F14.4°C 44.5°F6.9°C 61% 5.8 mph NW9.3 kmh NW 11.5 mph18.5 kmh 29.84 in1010.5 mb - 0.00 in0.0 mm 0.00 in0.0 mm
06:30 AM 57.3°F14.1°C 44.3°F6.8°C 62% 4.6 mph NNW7.4 kmh NNW 8.1 mph13.0 kmh 29.84 in1010.5 mb - 0.00 in0.0 mm 0.00 in0.0 mm
06:45 AM 56.9°F13.8°C 44.4°F6.9°C 63% 6.9 mph NW11.1 kmh NW 13.8 mph22.2 kmh 29.86 in1011.2 mb - 0.00 in0.0 mm 0.00 in0.0 mm
07:00 AM 56.5°F13.6°C 44.5°F6.9°C 64% 4.6 mph NW7.4 kmh NW 9.2 mph14.8 kmh 29.87 in1011.5 mb - 0.00 in0.0 mm 0.00 in0.0 mm
07:15 AM 56.0°F13.3°C 42.7°F5.9°C 61% 9.2 mph NW14.8 kmh NW 18.4 mph29.6 kmh 29.88 in1011.9 mb - 0.00 in0.0 mm 0.00 in0.0 mm
07:30 AM 56.5°F13.6°C 41.9°F5.5°C 58% 6.9 mph WNW11.1 kmh WNW 13.8 mph22.2 kmh 29.89 in1012.2 mb - 0.00 in0.0 mm 0.00 in0.0 mm
07:45 AM 56.4°F13.6°C 41.3°F5.2°C 57% 6.9 mph NW11.1 kmh NW 16.1 mph25.9 kmh 29.89 in1012.2 mb - 0.00 in0.0 mm 0.00 in0.0 mm
08:00 AM 55.9°F13.3°C 41.4°F5.2°C 58% 6.9 mph W11.1 kmh W 19.6 mph31.5 kmh 29.89 in1012.2 mb - 0.00 in0.0 mm 0.00 in0.0 mm
08:15 AM 55.3°F12.9°C 40.8°F4.9°C 58% 9.2 mph NW14.8 kmh NW 16.1 mph25.9 kmh 29.89 in1012.2 mb - 0.00 in0.0 mm 0.00 in0.0 mm
08:30 AM 56.3°F13.5°C 42.2°F5.7°C 59% 9.2 mph NW14.8 kmh NW 19.6 mph31.5 kmh 29.89 in1012.2 mb - 0.00 in0.0 mm 0.00 in0.0 mm
08:45 AM 55.5°F13.1°C 41.0°F5.0°C 58% 10.4 mph NW16.7 kmh NW 12.7 mph20.4 kmh 29.89 in1012.2 mb - 0.00 in0.0 mm 0.00 in0.0 mm
09:00 AM 56.0°F13.3°C 41.4°F5.2°C 58% 8.1 mph NW13.0 kmh NW 17.3 mph27.8 kmh 29.89 in1012.2 mb - 0.00 in0.0 mm 0.00 in0.0 mm
09:15 AM 56.8°F13.8°C 41.7°F5.4°C 57% 5.8 mph WNW9.3 kmh WNW 10.4 mph16.7 kmh 29.89 in1012.2 mb - 0.00 in0.0 mm 0.00 in0.0 mm
09:30 AM 57.1°F13.9°C 40.1°F4.5°C 53% 4.6 mph WNW7.4 kmh WNW 5.8 mph9.3 kmh 29.90 in1012.5 mb - 0.00 in0.0 mm 0.00 in0.0 mm
09:45 AM 58.1°F14.5°C 41.0°F5.0°C 53% 5.8 mph NW9.3 kmh NW 15.0 mph24.1 kmh 29.90 in1012.5 mb - 0.00 in0.0 mm 0.00 in0.0 mm
10:00 AM 58.4°F14.7°C 41.4°F5.2°C 53% 9.2 mph NW14.8 kmh NW 12.7 mph20.4 kmh 29.90 in1012.5 mb - 0.00 in0.0 mm 0.00 in0.0 mm
10:15 AM 60.1°F15.6°C 41.9°F5.5°C 51% 9.2 mph NW14.8 kmh NW 19.6 mph31.5 kmh 29.90 in1012.5 mb - 0.00 in0.0 mm 0.00 in0.0 mm
10:30 AM 60.8°F16.0°C 41.0°F5.0°C 48% 13.8 mph NW22.2 kmh NW 19.6 mph31.5 kmh 29.90 in1012.5 mb - 0.00 in0.0 mm 0.00 in0.0 mm
10:45 AM 61.3°F16.3°C 42.5°F5.8°C 50% 4.6 mph NW7.4 kmh NW 5.8 mph9.3 kmh 29.90 in1012.5 mb - 0.00 in0.0 mm 0.00 in0.0 mm
11:00 AM 62.5°F16.9°C 42.0°F5.6°C 47% 5.8 mph W9.3 kmh W 15.0 mph24.1 kmh 29.90 in1012.5 mb - 0.00 in0.0 mm 0.00 in0.0 mm
11:15 AM 62.5°F16.9°C 41.5°F5.3°C 46% 6.9 mph NW11.1 kmh NW 11.5 mph18.5 kmh 29.91 in1012.9 mb - 0.00 in0.0 mm 0.00 in0.0 mm
11:30 AM 62.9°F17.2°C 41.2°F5.1°C 45% 5.8 mph NW9.3 kmh NW 9.2 mph14.8 kmh 29.91 in1012.9 mb - 0.00 in0.0 mm 0.00 in0.0 mm
11:45 AM 64.3°F17.9°C 43.1°F6.2°C 46% 5.8 mph W9.3 kmh W 11.5 mph18.5 kmh 29.90 in1012.5 mb - 0.00 in0.0 mm 0.00 in0.0 mm
12:00 PM 64.7°F18.2°C 45.0°F7.2°C 49% 4.6 mph W7.4 kmh W 10.4 mph16.7 kmh 29.90 in1012.5 mb - 0.00 in0.0 mm 0.00 in0.0 mm
12:15 PM 65.5°F18.6°C 45.8°F7.7°C 49% 4.6 mph WNW7.4 kmh WNW 9.2 mph14.8 kmh 29.89 in1012.2 mb - 0.00 in0.0 mm 0.00 in0.0 mm
12:30 PM 65.6°F18.7°C 43.1°F6.2°C 44% 4.6 mph NW7.4 kmh NW 11.5 mph18.5 kmh 29.89 in1012.2 mb - 0.00 in0.0 mm 0.00 in0.0 mm
12:45 PM 66.8°F19.3°C 47.1°F8.4°C 49% 3.5 mph NW5.6 kmh NW 6.9 mph11.1 kmh 29.89 in1012.2 mb - 0.00 in0.0 mm 0.00 in0.0 mm
01:00 PM 67.2°F19.6°C 45.1°F7.3°C 45% 10.4 mph NW16.7 kmh NW 17.3 mph27.8 kmh 29.89 in1012.2 mb - 0.00 in0.0 mm 0.00 in0.0 mm
01:15 PM 67.5°F19.7°C 44.2°F6.8°C 43% 3.5 mph W5.6 kmh W 11.5 mph18.5 kmh 29.89 in1012.2 mb - 0.00 in0.0 mm 0.00 in0.0 mm
01:30 PM 68.4°F20.2°C 43.8°F6.6°C 41% 9.2 mph NW14.8 kmh NW 12.7 mph20.4 kmh 29.88 in1011.9 mb - 0.00 in0.0 mm 0.00 in0.0 mm
01:45 PM 68.4°F20.2°C 43.8°F6.6°C 41% 4.6 mph NW7.4 kmh NW 8.1 mph13.0 kmh 29.88 in1011.9 mb - 0.00 in0.0 mm 0.00 in0.0 mm
02:00 PM 69.7°F20.9°C 45.0°F7.2°C 41% 6.9 mph NW11.1 kmh NW 6.9 mph11.1 kmh 29.88 in1011.9 mb - 0.00 in0.0 mm 0.00 in0.0 mm
02:15 PM 69.4°F20.8°C 44.0°F6.7°C 40% 6.9 mph NW11.1 kmh NW 10.4 mph16.7 kmh 29.88 in1011.9 mb - 0.00 in0.0 mm 0.00 in0.0 mm
02:30 PM 70.8°F21.6°C 45.3°F7.4°C 40% 4.6 mph NW7.4 kmh NW 11.5 mph18.5 kmh 29.87 in1011.5 mb - 0.00 in0.0 mm 0.00 in0.0 mm
02:45 PM 70.8°F21.6°C 45.3°F7.4°C 40% 6.9 mph WNW11.1 kmh WNW 10.4 mph16.7 kmh 29.87 in1011.5 mb - 0.00 in0.0 mm 0.00 in0.0 mm
03:00 PM 70.9°F21.6°C 44.1°F6.7°C 38% 9.2 mph NW14.8 kmh NW 17.3 mph27.8 kmh 29.87 in1011.5 mb - 0.00 in0.0 mm 0.00 in0.0 mm
03:15 PM 71.7°F22.1°C 43.3°F6.3°C 36% 6.9 mph NW11.1 kmh NW 9.2 mph14.8 kmh 29.87 in1011.5 mb - 0.00 in0.0 mm 0.00 in0.0 mm
03:30 PM 72.0°F22.2°C 47.0°F8.3°C 41% 5.8 mph NNW9.3 kmh NNW 12.7 mph20.4 kmh 29.87 in1011.5 mb - 0.00 in0.0 mm 0.00 in0.0 mm
03:45 PM 71.7°F22.1°C 45.4°F7.4°C 39% 9.2 mph NNW14.8 kmh NNW 13.8 mph22.2 kmh 29.87 in1011.5 mb - 0.00 in0.0 mm 0.00 in0.0 mm
04:00 PM 71.8°F22.1°C 43.4°F6.3°C 36% 10.4 mph NW16.7 kmh NW 21.9 mph35.2 kmh 29.87 in1011.5 mb - 0.00 in0.0 mm 0.00 in0.0 mm
04:15 PM 71.3°F21.8°C 42.2°F5.7°C 35% 6.9 mph NW11.1 kmh NW 10.4 mph16.7 kmh 29.87 in1011.5 mb - 0.00 in0.0 mm 0.00 in0.0 mm
04:30 PM 71.5°F21.9°C 42.4°F5.8°C 35% 8.1 mph NW13.0 kmh NW 15.0 mph24.1 kmh 29.87 in1011.5 mb - 0.00 in0.0 mm 0.00 in0.0 mm
04:45 PM 70.6°F21.4°C 41.6°F5.3°C 35% 8.1 mph NW13.0 kmh NW 17.3 mph27.8 kmh 29.87 in1011.5 mb - 0.00 in0.0 mm 0.00 in0.0 mm
05:00 PM 70.9°F21.6°C 42.6°F5.9°C 36% 6.9 mph NW11.1 kmh NW 11.5 mph18.5 kmh 29.88 in1011.9 mb - 0.00 in0.0 mm 0.00 in0.0 mm
05:15 PM 71.2°F21.8°C 41.4°F5.2°C 34% 5.8 mph NW9.3 kmh NW 5.8 mph9.3 kmh 29.89 in1012.2 mb - 0.00 in0.0 mm 0.00 in0.0 mm
05:30 PM 70.2°F21.2°C 39.0°F3.9°C 32% 9.2 mph NW14.8 kmh NW 21.9 mph35.2 kmh 29.89 in1012.2 mb - 0.00 in0.0 mm 0.00 in0.0 mm
05:45 PM 70.0°F21.1°C 38.8°F3.8°C 32% 6.9 mph NW11.1 kmh NW 11.5 mph18.5 kmh 29.90 in1012.5 mb - 0.00 in0.0 mm 0.00 in0.0 mm
06:00 PM 69.5°F20.8°C 38.3°F3.5°C 32% 8.1 mph NW13.0 kmh NW 11.5 mph18.5 kmh 29.91 in1012.9 mb - 0.00 in0.0 mm 0.00 in0.0 mm
06:15 PM 69.1°F20.6°C 38.0°F3.3°C 32% 4.6 mph NNW7.4 kmh NNW 17.3 mph27.8 kmh 29.91 in1012.9 mb - 0.00 in0.0 mm 0.00 in0.0 mm
06:30 PM 69.0°F20.6°C 37.9°F3.3°C 32% 9.2 mph NW14.8 kmh NW 15.0 mph24.1 kmh 29.92 in1013.2 mb - 0.00 in0.0 mm 0.00 in0.0 mm
06:45 PM 68.3°F20.2°C 38.1°F3.4°C 33% 4.6 mph NNW7.4 kmh NNW 15.0 mph24.1 kmh 29.92 in1013.2 mb - 0.00 in0.0 mm 0.00 in0.0 mm
07:00 PM 68.1°F20.1°C 36.3°F2.4°C 31% 8.1 mph NW13.0 kmh NW 10.4 mph16.7 kmh 29.93 in1013.5 mb - 0.00 in0.0 mm 0.00 in0.0 mm
07:15 PM 67.3°F19.6°C 35.6°F2.0°C 31% 4.6 mph NNW7.4 kmh NNW 3.5 mph5.6 kmh 29.94 in1013.9 mb - 0.00 in0.0 mm 0.00 in0.0 mm
07:30 PM 66.6°F19.2°C 35.0°F1.7°C 31% 6.9 mph NW11.1 kmh NW 15.0 mph24.1 kmh 29.95 in1014.2 mb - 0.00 in0.0 mm 0.00 in0.0 mm
07:45 PM 66.0°F18.9°C 36.8°F2.7°C 34% 4.6 mph N7.4 kmh N 10.4 mph16.7 kmh 29.96 in1014.6 mb - 0.00 in0.0 mm 0.00 in0.0 mm
08:00 PM 64.9°F18.3°C 38.0°F3.3°C 37% 3.5 mph NNE5.6 kmh NNE 8.1 mph13.0 kmh 29.98 in1015.2 mb - 0.00 in0.0 mm 0.00 in0.0 mm
08:15 PM 63.9°F17.7°C 37.8°F3.2°C 38% 4.6 mph N7.4 kmh N 4.6 mph7.4 kmh 29.98 in1015.2 mb - 0.00 in0.0 mm 0.00 in0.0 mm
08:30 PM 63.1°F17.3°C 38.4°F3.6°C 40% 5.8 mph NW9.3 kmh NW 13.8 mph22.2 kmh 30.00 in1015.9 mb - 0.00 in0.0 mm 0.00 in0.0 mm
08:45 PM 62.5°F16.9°C 39.1°F3.9°C 42% 6.9 mph NW11.1 kmh NW 15.0 mph24.1 kmh 30.00 in1015.9 mb - 0.00 in0.0 mm 0.00 in0.0 mm
09:00 PM 62.1°F16.7°C 38.7°F3.7°C 42% Calm Calm 1.2 mph1.9 kmh 30.01 in1016.3 mb - 0.00 in0.0 mm 0.00 in0.0 mm
09:15 PM 61.5°F16.4°C 38.8°F3.8°C 43% 2.3 mph NNW3.7 kmh NNW 5.8 mph9.3 kmh 30.02 in1016.6 mb - 0.00 in0.0 mm 0.00 in0.0 mm
09:30 PM 61.2°F16.2°C 38.5°F3.6°C 43% 4.6 mph N7.4 kmh N 4.6 mph7.4 kmh 30.03 in1016.9 mb - 0.00 in0.0 mm 0.00 in0.0 mm
09:45 PM 60.6°F15.9°C 38.6°F3.7°C 44% 3.5 mph NW5.6 kmh NW 11.5 mph18.5 kmh 30.04 in1017.3 mb - 0.00 in0.0 mm 0.00 in0.0 mm
10:00 PM 60.4°F15.8°C 38.4°F3.6°C 44% 4.6 mph NW7.4 kmh NW 11.5 mph18.5 kmh 30.05 in1017.6 mb - 0.00 in0.0 mm 0.00 in0.0 mm
10:15 PM 59.9°F15.5°C 38.5°F3.6°C 45% 4.6 mph NW7.4 kmh NW 11.5 mph18.5 kmh 30.05 in1017.6 mb - 0.00 in0.0 mm 0.00 in0.0 mm
10:30 PM 59.6°F15.3°C 38.7°F3.7°C 46% 4.6 mph WNW7.4 kmh WNW 9.2 mph14.8 kmh 30.05 in1017.6 mb - 0.00 in0.0 mm 0.00 in0.0 mm
10:45 PM 59.7°F15.4°C 38.3°F3.5°C 45% 5.8 mph NW9.3 kmh NW 11.5 mph18.5 kmh 30.06 in1017.9 mb - 0.00 in0.0 mm 0.00 in0.0 mm
11:00 PM 59.1°F15.1°C 38.9°F3.8°C 47% 3.5 mph NW5.6 kmh NW 6.9 mph11.1 kmh 30.07 in1018.3 mb - 0.00 in0.0 mm 0.00 in0.0 mm
11:15 PM 58.9°F14.9°C 38.7°F3.7°C 47% 4.6 mph WNW7.4 kmh WNW 11.5 mph18.5 kmh 30.07 in1018.3 mb - 0.00 in0.0 mm 0.00 in0.0 mm
11:30 PM 58.7°F14.8°C 38.5°F3.6°C 47% 3.5 mph NW5.6 kmh NW 8.1 mph13.0 kmh 30.07 in1018.3 mb - 0.00 in0.0 mm 0.00 in0.0 mm
11:45 PM 58.4°F14.7°C 38.8°F3.8°C 48% 4.6 mph NW7.4 kmh NW 9.2 mph14.8 kmh 30.07 in1018.3 mb - 0.00 in0.0 mm 0.00 in0.0 mm